createdAt,value
2019-06-08T00:00:37.429Z,0.00
2019-06-08T00:01:37.466Z,0.00
2019-06-08T00:02:36.733Z,0.00
2019-06-08T00:03:36.220Z,0.00
2019-06-08T00:04:28.650Z,0.00
2019-06-08T00:05:37.571Z,0.00
2019-06-08T00:06:36.185Z,0.00
2019-06-08T00:07:36.243Z,0.00
2019-06-08T00:08:36.116Z,0.00
2019-06-08T00:09:36.108Z,0.00
2019-06-08T00:10:36.251Z,0.00
2019-06-08T00:11:28.579Z,0.00
2019-06-08T00:12:36.074Z,0.00
2019-06-08T00:13:36.091Z,0.00
2019-06-08T00:14:36.033Z,0.00
2019-06-08T00:15:28.484Z,0.00
2019-06-08T00:16:38.232Z,0.00
2019-06-08T00:17:38.084Z,0.00
2019-06-08T00:19:38.694Z,0.00
2019-06-08T00:20:38.776Z,0.00
2019-06-08T00:21:38.924Z,0.00
2019-06-08T00:22:38.662Z,0.00
2019-06-08T00:23:38.653Z,0.00
2019-06-08T00:24:38.669Z,0.00
2019-06-08T00:25:38.678Z,0.00
2019-06-08T00:26:38.646Z,0.00
2019-06-08T00:27:38.611Z,0.00
2019-06-08T00:28:47.148Z,0.00
2019-06-08T00:29:46.183Z,0.00
2019-06-08T00:30:46.179Z,0.00
2019-06-08T00:31:38.595Z,0.00
2019-06-08T00:32:46.143Z,0.00
2019-06-08T00:33:46.157Z,0.00
2019-06-08T00:34:46.097Z,0.00
2019-06-08T00:35:46.120Z,0.00
2019-06-08T00:36:38.561Z,0.00
2019-06-08T00:37:38.521Z,0.00
2019-06-08T00:38:38.491Z,0.00
2019-06-08T00:39:38.475Z,0.00
2019-06-08T00:40:38.531Z,0.00
2019-06-08T00:41:38.472Z,0.00
2019-06-08T00:42:38.464Z,0.00
2019-06-08T00:43:38.436Z,0.00
2019-06-08T00:44:38.422Z,0.00
2019-06-08T00:45:38.410Z,0.00
2019-06-08T00:46:38.402Z,0.00
2019-06-08T00:47:47.618Z,0.00
2019-06-08T00:48:39.418Z,0.00
2019-06-08T00:49:38.372Z,0.00
2019-06-08T00:50:38.359Z,0.00
2019-06-08T00:51:38.353Z,0.00
2019-06-08T00:52:38.337Z,0.00
2019-06-08T00:53:38.350Z,0.00
2019-06-08T00:54:38.327Z,0.00
2019-06-08T00:55:38.324Z,0.00
2019-06-08T00:56:38.300Z,0.00
2019-06-08T00:57:38.294Z,0.00
2019-06-08T00:58:38.301Z,0.00
2019-06-08T00:59:38.269Z,0.00
2019-06-08T01:00:38.265Z,0.00
2019-06-08T01:01:38.270Z,0.00
2019-06-08T01:02:38.229Z,0.00
2019-06-08T01:03:38.249Z,0.00
2019-06-08T01:04:38.227Z,0.00
2019-06-08T01:05:38.204Z,0.00
2019-06-08T01:06:38.199Z,0.00
2019-06-08T01:07:38.175Z,0.00
2019-06-08T01:08:38.185Z,0.00
2019-06-08T01:09:38.155Z,0.00
2019-06-08T01:10:38.144Z,0.00
2019-06-08T01:11:38.135Z,0.00
2019-06-08T01:12:38.247Z,0.00
2019-06-08T01:13:38.154Z,0.00
2019-06-08T01:14:38.104Z,0.00
2019-06-08T01:15:38.091Z,0.00
2019-06-08T01:16:38.078Z,0.00
2019-06-08T01:17:38.070Z,0.00
2019-06-08T01:18:38.075Z,0.00
2019-06-08T01:19:38.066Z,0.00
2019-06-08T01:20:38.037Z,0.00
2019-06-08T01:21:38.029Z,0.00
2019-06-08T01:22:38.055Z,0.00
2019-06-08T01:23:38.006Z,0.00
2019-06-08T01:24:38.014Z,0.00
2019-06-08T01:25:37.986Z,0.00
2019-06-08T01:26:38.001Z,0.00
2019-06-08T01:27:37.976Z,0.00
2019-06-08T01:28:37.993Z,0.00
2019-06-08T01:29:37.993Z,0.00
2019-06-08T01:30:37.966Z,0.00
2019-06-08T01:31:37.919Z,0.00
2019-06-08T01:32:45.493Z,0.00
2019-06-08T01:33:45.461Z,0.00
2019-06-08T01:34:37.915Z,0.00
2019-06-08T01:35:45.437Z,0.00
2019-06-08T01:36:37.908Z,0.00
2019-06-08T01:37:45.408Z,0.00
2019-06-08T01:38:37.859Z,0.00
2019-06-08T01:39:37.883Z,0.00
2019-06-08T01:40:37.834Z,0.00
2019-06-08T01:41:37.824Z,0.00
2019-06-08T01:42:37.800Z,0.00
2019-06-08T01:43:37.787Z,0.00
2019-06-08T01:44:37.817Z,0.00
2019-06-08T01:45:37.787Z,0.00
2019-06-08T01:46:37.766Z,0.00
2019-06-08T01:47:37.753Z,0.00
2019-06-08T01:48:37.734Z,0.00
2019-06-08T01:49:37.725Z,0.00
2019-06-08T01:50:37.736Z,0.00
2019-06-08T01:51:37.703Z,0.00
2019-06-08T01:52:37.704Z,0.00
2019-06-08T01:53:37.682Z,0.00
2019-06-08T01:54:37.672Z,0.00
2019-06-08T01:55:37.682Z,0.00
2019-06-08T01:56:37.650Z,0.00
2019-06-08T01:57:37.669Z,0.00
2019-06-08T01:58:37.635Z,0.00
2019-06-08T01:59:37.625Z,0.00
2019-06-08T02:00:41.218Z,0.00
2019-06-08T02:01:37.620Z,0.00
2019-06-08T02:02:45.136Z,0.00
2019-06-08T02:03:37.613Z,0.00
2019-06-08T02:04:37.571Z,0.00
2019-06-08T02:05:37.605Z,0.00
2019-06-08T02:06:37.616Z,0.00
2019-06-08T02:07:37.532Z,0.00
2019-06-08T02:08:37.564Z,0.00
2019-06-08T02:09:37.545Z,0.00
2019-06-08T02:10:37.545Z,0.00
2019-06-08T02:11:37.520Z,0.00
2019-06-08T02:12:37.491Z,0.00
2019-06-08T02:13:37.495Z,0.00
2019-06-08T02:14:37.470Z,0.00
2019-06-08T02:15:37.455Z,0.00
2019-06-08T02:16:37.460Z,0.00
2019-06-08T02:17:37.428Z,0.00
2019-06-08T02:18:48.967Z,0.00
2019-06-08T02:19:38.802Z,0.00
2019-06-08T02:20:37.431Z,0.00
2019-06-08T02:21:37.413Z,0.00
2019-06-08T02:22:37.376Z,0.00
2019-06-08T02:23:37.371Z,0.00
2019-06-08T02:24:37.352Z,0.00
2019-06-08T02:25:37.350Z,0.00
2019-06-08T02:26:37.360Z,0.00
2019-06-08T02:27:37.330Z,0.00
2019-06-08T02:28:37.335Z,0.00
2019-06-08T02:29:37.311Z,0.00
2019-06-08T02:30:41.146Z,0.00
2019-06-08T02:31:37.821Z,0.00
2019-06-08T02:32:37.531Z,0.00
2019-06-08T02:33:37.440Z,0.00
2019-06-08T02:34:38.150Z,0.00
2019-06-08T02:35:37.841Z,0.00
2019-06-08T02:36:37.876Z,0.00
2019-06-08T02:37:38.307Z,0.00
2019-06-08T02:38:37.217Z,0.00
2019-06-08T02:39:38.422Z,0.00
2019-06-08T02:40:37.187Z,0.00
2019-06-08T02:41:37.628Z,0.00
2019-06-08T02:42:37.299Z,0.00
2019-06-08T02:43:38.271Z,0.00
2019-06-08T02:44:37.144Z,0.00
2019-06-08T02:45:39.917Z,0.00
2019-06-08T02:46:38.221Z,0.00
2019-06-08T02:47:37.168Z,0.00
2019-06-08T02:48:56.315Z,0.00
2019-06-08T02:49:39.660Z,0.00
2019-06-08T02:50:37.468Z,0.00
2019-06-08T02:51:38.060Z,0.00
2019-06-08T02:52:38.322Z,0.00
2019-06-08T02:53:38.269Z,0.00
2019-06-08T02:54:37.846Z,0.00
2019-06-08T02:55:37.270Z,0.00
2019-06-08T02:56:39.293Z,0.00
2019-06-08T02:57:37.580Z,0.00
2019-06-08T02:58:39.089Z,0.00
2019-06-08T02:59:37.978Z,0.00
2019-06-08T03:00:37.446Z,0.00
2019-06-08T03:01:38.858Z,0.00
2019-06-08T03:02:38.542Z,0.00
2019-06-08T03:03:38.534Z,0.00
2019-06-08T03:04:38.549Z,0.00
2019-06-08T03:05:38.099Z,0.00
2019-06-08T03:06:38.904Z,0.00
2019-06-08T03:07:38.694Z,0.00
2019-06-08T03:08:38.591Z,4.00
2019-06-08T03:09:38.523Z,4.00
2019-06-08T03:10:37.227Z,0.00
2019-06-08T03:11:37.170Z,4.00
2019-06-08T03:12:37.524Z,4.00
2019-06-08T03:13:39.460Z,4.00
2019-06-08T03:14:37.675Z,8.00
2019-06-08T03:15:38.621Z,8.00
2019-06-08T03:16:40.409Z,8.00
2019-06-08T03:17:37.744Z,8.00
2019-06-08T03:18:38.289Z,4.00
2019-06-08T03:19:37.548Z,8.00
2019-06-08T03:20:37.873Z,8.00
2019-06-08T03:21:38.281Z,8.00
2019-06-08T03:22:38.813Z,8.00
2019-06-08T03:23:38.359Z,8.00
2019-06-08T03:24:38.566Z,8.00
2019-06-08T03:25:47.421Z,8.00
2019-06-08T03:26:39.693Z,8.00
2019-06-08T03:27:37.316Z,8.00
2019-06-08T03:28:37.364Z,12.00
2019-06-08T03:29:37.285Z,8.00
2019-06-08T03:30:42.226Z,8.00
2019-06-08T03:31:43.919Z,8.00
2019-06-08T03:32:45.983Z,12.00
2019-06-08T03:33:45.326Z,12.00
2019-06-08T03:34:45.764Z,12.00
2019-06-08T03:35:46.622Z,16.00
2019-06-08T03:36:43.914Z,12.00
2019-06-08T03:37:37.961Z,16.00
2019-06-08T03:38:37.643Z,16.00
2019-06-08T03:39:37.043Z,16.00
2019-06-08T03:40:38.201Z,16.00
2019-06-08T03:41:38.296Z,20.00
2019-06-08T03:42:36.555Z,20.00
2019-06-08T03:43:37.704Z,20.00
2019-06-08T03:44:38.323Z,24.00
2019-06-08T03:45:36.504Z,24.00
2019-06-08T03:46:36.517Z,24.00
2019-06-08T03:47:37.110Z,28.00
2019-06-08T03:48:37.160Z,32.00
2019-06-08T03:49:47.497Z,28.00
2019-06-08T03:50:37.955Z,28.00
2019-06-08T03:51:40.266Z,32.00
2019-06-08T03:52:38.212Z,36.00
2019-06-08T03:53:38.046Z,36.00
2019-06-08T03:54:38.895Z,36.00
2019-06-08T03:55:37.992Z,32.00
2019-06-08T03:56:38.016Z,32.00
2019-06-08T03:57:38.079Z,44.00
2019-06-08T03:58:37.095Z,36.00
2019-06-08T03:59:38.339Z,40.00
2019-06-08T04:00:36.448Z,40.00
2019-06-08T04:01:37.456Z,40.00
2019-06-08T04:02:37.920Z,40.00
2019-06-08T04:03:37.570Z,48.00
2019-06-08T04:04:37.930Z,48.00
2019-06-08T04:05:37.947Z,48.00
2019-06-08T04:06:37.733Z,40.00
2019-06-08T04:07:37.594Z,44.00
2019-06-08T04:08:37.878Z,52.00
2019-06-08T04:09:37.758Z,48.00
2019-06-08T04:10:37.609Z,52.00
2019-06-08T04:11:37.786Z,48.00
2019-06-08T04:12:37.639Z,64.00
2019-06-08T04:13:37.660Z,56.00
2019-06-08T04:14:37.788Z,60.00
2019-06-08T04:15:37.806Z,64.00
2019-06-08T04:16:38.077Z,72.00
2019-06-08T04:17:37.818Z,80.00
2019-06-08T04:18:46.691Z,84.00
2019-06-08T04:19:37.983Z,88.00
2019-06-08T04:20:37.848Z,112.00
2019-06-08T04:21:37.772Z,100.00
2019-06-08T04:22:36.092Z,92.00
2019-06-08T04:23:36.128Z,100.00
2019-06-08T04:24:36.068Z,96.00
2019-06-08T04:25:36.061Z,112.00
2019-06-08T04:26:36.048Z,124.00
2019-06-08T04:27:36.039Z,108.00
2019-06-08T04:28:36.068Z,104.00
2019-06-08T04:29:37.545Z,116.00
2019-06-08T04:30:36.007Z,132.00
2019-06-08T04:31:37.723Z,140.00
2019-06-08T04:32:35.984Z,132.00
2019-06-08T04:33:37.346Z,128.00
2019-06-08T04:34:35.985Z,200.00
2019-06-08T04:35:35.948Z,176.00
2019-06-08T04:36:35.948Z,152.00
2019-06-08T04:37:35.936Z,148.00
2019-06-08T04:38:35.920Z,172.00
2019-06-08T04:39:35.929Z,176.00
2019-06-08T04:40:35.952Z,168.00
2019-06-08T04:41:35.898Z,212.00
2019-06-08T04:42:35.934Z,212.00
2019-06-08T04:43:35.892Z,200.00
2019-06-08T04:44:35.886Z,232.00
2019-06-08T04:45:35.865Z,324.00
2019-06-08T04:46:35.892Z,312.00
2019-06-08T04:47:35.816Z,296.00
2019-06-08T04:48:35.811Z,396.00
2019-06-08T04:49:35.817Z,512.00
2019-06-08T04:50:35.900Z,692.00
2019-06-08T04:51:35.804Z,688.00
2019-06-08T04:52:35.780Z,472.00
2019-06-08T04:53:45.573Z,436.00
2019-06-08T04:54:45.244Z,488.00
2019-06-08T04:55:35.743Z,540.00
2019-06-08T04:56:35.734Z,508.00
2019-06-08T04:57:35.731Z,576.00
2019-06-08T04:58:35.701Z,612.00
2019-06-08T04:59:35.713Z,576.00
2019-06-08T05:00:35.682Z,516.00
2019-06-08T05:01:35.669Z,512.00
2019-06-08T05:02:35.669Z,616.00
2019-06-08T05:03:35.689Z,656.00
2019-06-08T05:04:35.669Z,728.00
2019-06-08T05:05:35.634Z,592.00
2019-06-08T05:06:35.700Z,520.00
2019-06-08T05:07:35.616Z,616.00
2019-06-08T05:08:35.607Z,900.00
2019-06-08T05:09:35.586Z,1112.00
2019-06-08T05:10:35.621Z,1068.00
2019-06-08T05:11:36.504Z,1180.00
2019-06-08T05:12:35.622Z,1164.00
2019-06-08T05:13:35.747Z,976.00
2019-06-08T05:14:35.545Z,1300.00
2019-06-08T05:15:35.594Z,1364.00
2019-06-08T05:16:35.545Z,1336.00
2019-06-08T05:17:35.524Z,1560.00
2019-06-08T05:18:35.557Z,1528.00
2019-06-08T05:19:45.411Z,1548.00
2019-06-08T05:20:39.385Z,1496.00
2019-06-08T05:21:36.681Z,1556.00
2019-06-08T05:22:43.650Z,1540.00
2019-06-08T05:23:35.457Z,1232.00
2019-06-08T05:24:35.424Z,1256.00
2019-06-08T05:25:35.434Z,1364.00
2019-06-08T05:26:35.417Z,1164.00
2019-06-08T05:27:35.473Z,1216.00
2019-06-08T05:28:35.378Z,1056.00
2019-06-08T05:29:35.372Z,932.00
2019-06-08T05:30:35.750Z,1100.00
2019-06-08T05:31:35.353Z,1328.00
2019-06-08T05:32:35.355Z,1776.00
2019-06-08T05:33:35.631Z,1740.00
2019-06-08T05:34:35.410Z,1492.00
2019-06-08T05:35:35.373Z,1464.00
2019-06-08T05:36:35.343Z,1556.00
2019-06-08T05:37:35.327Z,1604.00
2019-06-08T05:38:35.348Z,1436.00
2019-06-08T05:39:35.381Z,1200.00
2019-06-08T05:40:35.276Z,1040.00
2019-06-08T05:41:35.294Z,1016.00
2019-06-08T05:42:35.320Z,992.00
2019-06-08T05:43:35.232Z,968.00
2019-06-08T05:44:35.340Z,876.00
2019-06-08T05:45:35.199Z,840.00
2019-06-08T05:46:35.490Z,928.00
2019-06-08T05:47:35.273Z,884.00
2019-06-08T05:48:35.188Z,888.00
2019-06-08T05:49:35.200Z,948.00
2019-06-08T05:50:35.226Z,992.00
2019-06-08T05:51:35.169Z,960.00
2019-06-08T05:52:35.124Z,1032.00
2019-06-08T05:53:35.118Z,904.00
2019-06-08T05:54:35.105Z,884.00
2019-06-08T05:55:35.098Z,872.00
2019-06-08T05:56:35.103Z,900.00
2019-06-08T05:57:35.122Z,1060.00
2019-06-08T05:58:35.069Z,1284.00
2019-06-08T05:59:35.057Z,1036.00
2019-06-08T06:00:35.043Z,1060.00
2019-06-08T06:01:35.056Z,1236.00
2019-06-08T06:02:35.022Z,1420.00
2019-06-08T06:03:35.013Z,1760.00
2019-06-08T06:04:35.087Z,1948.00
2019-06-08T06:05:34.987Z,1536.00
2019-06-08T06:06:35.038Z,1508.00
2019-06-08T06:07:34.960Z,1528.00
2019-06-08T06:08:34.951Z,1732.00
2019-06-08T06:09:34.999Z,1436.00
2019-06-08T06:10:34.930Z,1404.00
2019-06-08T06:11:34.941Z,1400.00
2019-06-08T06:12:34.930Z,1436.00
2019-06-08T06:13:42.749Z,1128.00
2019-06-08T06:14:36.971Z,1004.00
2019-06-08T06:15:34.874Z,1164.00
2019-06-08T06:16:34.888Z,1224.00
2019-06-08T06:17:34.862Z,1124.00
2019-06-08T06:18:34.843Z,1084.00
2019-06-08T06:19:34.843Z,1116.00
2019-06-08T06:20:34.830Z,1344.00
2019-06-08T06:21:34.834Z,1316.00
2019-06-08T06:22:34.818Z,1180.00
2019-06-08T06:23:34.791Z,1260.00
2019-06-08T06:24:34.803Z,1396.00
2019-06-08T06:25:34.774Z,1380.00
2019-06-08T06:26:34.778Z,1240.00
2019-06-08T06:27:34.746Z,1016.00
2019-06-08T06:28:34.753Z,1152.00
2019-06-08T06:29:34.859Z,1356.00
2019-06-08T06:30:34.730Z,1288.00
2019-06-08T06:31:34.759Z,1672.00
2019-06-08T06:32:34.699Z,1740.00
2019-06-08T06:33:34.687Z,1716.00
2019-06-08T06:34:34.671Z,1720.00
2019-06-08T06:35:34.661Z,1616.00
2019-06-08T06:36:34.681Z,1692.00
2019-06-08T06:37:34.641Z,1528.00
2019-06-08T06:38:34.630Z,1724.00
2019-06-08T06:39:34.620Z,1804.00
2019-06-08T06:40:34.610Z,2044.00
2019-06-08T06:41:34.623Z,1920.00
2019-06-08T06:42:34.589Z,2240.00
2019-06-08T06:43:34.603Z,2608.00
2019-06-08T06:44:34.579Z,3216.00
2019-06-08T06:45:34.563Z,3648.00
2019-06-08T06:46:34.568Z,3124.00
2019-06-08T06:47:34.589Z,2916.00
2019-06-08T06:48:34.526Z,2564.00
2019-06-08T06:49:34.514Z,2552.00
2019-06-08T06:50:34.629Z,2344.00
2019-06-08T06:51:34.586Z,2160.00
2019-06-08T06:52:44.282Z,1836.00
2019-06-08T06:53:34.488Z,1780.00
2019-06-08T06:54:34.500Z,1608.00
2019-06-08T06:55:34.553Z,1592.00
2019-06-08T06:56:45.186Z,1476.00
2019-06-08T06:57:36.523Z,1472.00
2019-06-08T06:58:34.431Z,1432.00
2019-06-08T06:59:34.413Z,1588.00
2019-06-08T07:00:34.400Z,1764.00
2019-06-08T07:01:34.439Z,1792.00
2019-06-08T07:02:34.376Z,1912.00
2019-06-08T07:03:34.365Z,1924.00
2019-06-08T07:04:34.381Z,2112.00
2019-06-08T07:05:34.393Z,1872.00
2019-06-08T07:06:34.466Z,2336.00
2019-06-08T07:07:34.319Z,1936.00
2019-06-08T07:08:34.315Z,1688.00
2019-06-08T07:09:34.301Z,1584.00
2019-06-08T07:10:34.343Z,1464.00
2019-06-08T07:11:34.309Z,1516.00
2019-06-08T07:12:34.265Z,1600.00
2019-06-08T07:13:34.258Z,1432.00
2019-06-08T07:14:34.251Z,1448.00
2019-06-08T07:15:41.430Z,1696.00
2019-06-08T07:16:35.258Z,1668.00
2019-06-08T07:17:34.208Z,1780.00
2019-06-08T07:18:34.197Z,1708.00
2019-06-08T07:19:34.229Z,1944.00
2019-06-08T07:20:34.178Z,2040.00
2019-06-08T07:21:41.888Z,2296.00
2019-06-08T07:22:35.281Z,2364.00
2019-06-08T07:23:43.227Z,2700.00
2019-06-08T07:24:34.204Z,2292.00
2019-06-08T07:25:34.152Z,2480.00
2019-06-08T07:26:34.206Z,2528.00
2019-06-08T07:27:34.111Z,2196.00
2019-06-08T07:28:34.164Z,2312.00
2019-06-08T07:29:34.155Z,3212.00
2019-06-08T07:30:34.150Z,3016.00
2019-06-08T07:31:34.083Z,3000.00
2019-06-08T07:32:34.060Z,2640.00
2019-06-08T07:33:41.628Z,2872.00
2019-06-08T07:34:34.039Z,3312.00
2019-06-08T07:35:34.017Z,3396.00
2019-06-08T07:36:34.076Z,3024.00
2019-06-08T07:37:34.022Z,3116.00
2019-06-08T07:38:34.031Z,3832.00
2019-06-08T07:39:34.057Z,5720.00
2019-06-08T07:40:34.060Z,7084.00
2019-06-08T07:41:34.008Z,6012.00
2019-06-08T07:42:33.956Z,6300.00
2019-06-08T07:43:33.969Z,4680.00
2019-06-08T07:44:34.090Z,5312.00
2019-06-08T07:45:33.928Z,5304.00
2019-06-08T07:46:34.153Z,4068.00
2019-06-08T07:47:34.177Z,3236.00
2019-06-08T07:48:33.969Z,4320.00
2019-06-08T07:49:33.906Z,5088.00
2019-06-08T07:50:34.008Z,5856.00
2019-06-08T07:51:33.856Z,4196.00
2019-06-08T07:52:33.983Z,3976.00
2019-06-08T07:53:33.924Z,2452.00
2019-06-08T07:54:33.875Z,2004.00
2019-06-08T07:55:33.955Z,1936.00
2019-06-08T07:56:33.934Z,2008.00
2019-06-08T07:57:33.922Z,2496.00
2019-06-08T07:58:33.767Z,2312.00
2019-06-08T07:59:33.754Z,2488.00
2019-06-08T08:00:33.741Z,3256.00
2019-06-08T08:01:36.562Z,2572.00
2019-06-08T08:02:33.750Z,2576.00
2019-06-08T08:03:33.701Z,2720.00
2019-06-08T08:04:33.689Z,2964.00
2019-06-08T08:05:33.689Z,3240.00
2019-06-08T08:06:33.676Z,2888.00
2019-06-08T08:07:33.686Z,2864.00
2019-06-08T08:08:33.662Z,3296.00
2019-06-08T08:09:33.735Z,3864.00
2019-06-08T08:10:33.626Z,4040.00
2019-06-08T08:11:33.615Z,3400.00
2019-06-08T08:12:33.628Z,2972.00
2019-06-08T08:13:33.594Z,2892.00
2019-06-08T08:14:33.590Z,2520.00
2019-06-08T08:15:33.580Z,3936.00
2019-06-08T08:16:33.565Z,4176.00
2019-06-08T08:17:34.414Z,3532.00
2019-06-08T08:18:33.557Z,2932.00
2019-06-08T08:19:33.543Z,4972.00
2019-06-08T08:20:33.518Z,14700.00
2019-06-08T08:21:33.505Z,22176.00
2019-06-08T08:22:33.586Z,59776.00
2019-06-08T08:23:33.514Z,5440.00
2019-06-08T08:24:42.086Z,5932.00
2019-06-08T08:25:41.030Z,3628.00
2019-06-08T08:26:51.453Z,2368.00
2019-06-08T08:27:33.468Z,2228.00
2019-06-08T08:28:33.434Z,2552.00
2019-06-08T08:29:33.455Z,2628.00
2019-06-08T08:30:33.410Z,2528.00
2019-06-08T08:31:33.418Z,2800.00
2019-06-08T08:32:33.425Z,2140.00
2019-06-08T08:33:34.080Z,1944.00
2019-06-08T08:34:33.365Z,1772.00
2019-06-08T08:35:33.368Z,1472.00
2019-06-08T08:36:33.568Z,1332.00
2019-06-08T08:37:33.355Z,1160.00
2019-06-08T08:38:33.320Z,976.00
2019-06-08T08:39:33.336Z,812.00
2019-06-08T08:40:33.310Z,680.00
2019-06-08T08:41:33.298Z,672.00
2019-06-08T08:42:33.357Z,680.00
2019-06-08T08:43:33.277Z,704.00
2019-06-08T08:44:33.274Z,720.00
2019-06-08T08:45:33.247Z,876.00
2019-06-08T08:46:33.279Z,1080.00
2019-06-08T08:47:33.242Z,1016.00
2019-06-08T08:48:33.210Z,892.00
2019-06-08T08:49:33.207Z,820.00
2019-06-08T08:50:33.192Z,724.00
2019-06-08T08:51:34.105Z,672.00
2019-06-08T08:52:37.179Z,724.00
2019-06-08T08:54:44.545Z,808.00
2019-06-08T08:55:44.395Z,844.00
2019-06-08T08:56:44.388Z,820.00
2019-06-08T08:57:44.379Z,828.00
2019-06-08T08:58:44.357Z,792.00
2019-06-08T08:59:44.334Z,792.00
2019-06-08T09:00:44.343Z,744.00
2019-06-08T09:01:44.311Z,808.00
2019-06-08T09:02:44.327Z,900.00
2019-06-08T09:03:44.309Z,1108.00
2019-06-08T09:04:44.291Z,1188.00
2019-06-08T09:05:44.270Z,1404.00
2019-06-08T09:06:44.276Z,1536.00
2019-06-08T09:07:44.297Z,1796.00
2019-06-08T09:08:44.245Z,2560.00
2019-06-08T09:09:44.234Z,2548.00
2019-06-08T09:10:44.225Z,7644.00
2019-06-08T09:11:44.222Z,6392.00
2019-06-08T09:12:44.262Z,3308.00
2019-06-08T09:13:44.299Z,3152.00
2019-06-08T09:14:44.188Z,24384.00
2019-06-08T09:15:44.254Z,11428.00
2019-06-08T09:16:44.155Z,79840.00
2019-06-08T09:17:44.153Z,86816.00
2019-06-08T09:18:44.268Z,86336.00
2019-06-08T09:19:44.131Z,78592.00
2019-06-08T09:20:44.128Z,73280.00
2019-06-08T09:21:44.148Z,7492.00
2019-06-08T09:22:56.214Z,23584.00
2019-06-08T09:23:45.103Z,26432.00
2019-06-08T09:24:44.066Z,8728.00
2019-06-08T09:25:57.123Z,32256.00
2019-06-08T09:29:10.602Z,31072.00
2019-06-08T09:31:18.689Z,8784.00
2019-06-08T09:32:28.193Z,9320.00
2019-06-08T09:33:24.897Z,24064.00
2019-06-08T09:34:19.468Z,10428.00
2019-06-08T09:35:24.868Z,5508.00
2019-06-08T09:36:17.850Z,6080.00
2019-06-08T09:37:25.861Z,7944.00
2019-06-08T09:38:18.629Z,9700.00
2019-06-08T09:39:18.575Z,6796.00
2019-06-08T09:40:17.325Z,10208.00
2019-06-08T09:41:18.629Z,92064.00
2019-06-08T09:42:20.963Z,3696.00
2019-06-08T09:43:18.953Z,2752.00
2019-06-08T09:44:18.498Z,2660.00
2019-06-08T09:45:18.214Z,2708.00
2019-06-08T09:46:17.907Z,2308.00
2019-06-08T09:47:18.099Z,2632.00
2019-06-08T09:48:18.198Z,2224.00
2019-06-08T09:49:18.797Z,2312.00
2019-06-08T09:50:18.541Z,3360.00
2019-06-08T09:51:18.669Z,5276.00
2019-06-08T09:52:18.377Z,3416.00
2019-06-08T09:53:26.680Z,2324.00
2019-06-08T09:54:18.581Z,1832.00
2019-06-08T09:55:18.114Z,2216.00
2019-06-08T09:56:18.525Z,2108.00
2019-06-08T09:57:18.844Z,2912.00
2019-06-08T09:58:18.074Z,2436.00
2019-06-08T09:59:18.834Z,2776.00
2019-06-08T10:00:21.241Z,2240.00
2019-06-08T10:01:18.538Z,2740.00
2019-06-08T10:02:18.416Z,2824.00
2019-06-08T10:03:18.661Z,1912.00
2019-06-08T10:04:17.104Z,2112.00
2019-06-08T10:05:18.524Z,2608.00
2019-06-08T10:06:18.204Z,3388.00
2019-06-08T10:07:18.623Z,3524.00
2019-06-08T10:08:20.177Z,3236.00
2019-06-08T10:09:18.651Z,3908.00
2019-06-08T10:10:18.160Z,3936.00
2019-06-08T10:11:28.068Z,4760.00
2019-06-08T10:12:18.183Z,5096.00
2019-06-08T10:13:24.492Z,7744.00
2019-06-08T10:14:24.468Z,7856.00
2019-06-08T10:15:28.440Z,10548.00
2019-06-08T10:16:18.533Z,6344.00
2019-06-08T10:17:27.870Z,6092.00
2019-06-08T10:19:37.032Z,8132.00
2019-06-08T10:21:58.845Z,7880.00
2019-06-08T10:23:00.983Z,5604.00
2019-06-08T10:24:01.046Z,6852.00
2019-06-08T10:25:10.471Z,5672.00
2019-06-08T10:26:00.755Z,4896.00
2019-06-08T10:26:59.375Z,4188.00
2019-06-08T10:28:04.160Z,4616.00
2019-06-08T10:29:02.183Z,3460.00
2019-06-08T10:30:01.275Z,3728.00
2019-06-08T10:31:08.292Z,5696.00
2019-06-08T10:31:59.316Z,7124.00
2019-06-08T10:33:09.976Z,5664.00
2019-06-08T10:34:01.496Z,5992.00
2019-06-08T10:35:02.206Z,6032.00
2019-06-08T10:36:00.676Z,4580.00
2019-06-08T10:37:12.529Z,4292.00
2019-06-08T10:38:02.817Z,3620.00
2019-06-08T10:40:09.450Z,3464.00
2019-06-08T10:41:16.117Z,3800.00
2019-06-08T10:43:20.062Z,4812.00
2019-06-08T10:44:19.613Z,5004.00
2019-06-08T10:45:19.627Z,5060.00
2019-06-08T10:46:20.950Z,5148.00
2019-06-08T10:47:19.572Z,5552.00
2019-06-08T10:48:19.568Z,3776.00
2019-06-08T10:49:19.858Z,3168.00
2019-06-08T10:50:19.674Z,3424.00
2019-06-08T10:51:19.590Z,3088.00
2019-06-08T10:52:20.326Z,2296.00
2019-06-08T10:53:19.503Z,2932.00
2019-06-08T10:54:19.546Z,3408.00
2019-06-08T10:55:19.544Z,5280.00
2019-06-08T10:56:19.493Z,7916.00
2019-06-08T10:57:19.495Z,6168.00
2019-06-08T10:58:19.635Z,5676.00
2019-06-08T10:59:19.438Z,6408.00
2019-06-08T11:00:23.525Z,5904.00
2019-06-08T11:01:19.461Z,7068.00
2019-06-08T11:02:19.409Z,6816.00
2019-06-08T11:03:19.413Z,6844.00
2019-06-08T11:04:19.390Z,5916.00
2019-06-08T11:05:19.504Z,5112.00
2019-06-08T11:06:19.407Z,6568.00
2019-06-08T11:07:19.360Z,9060.00
2019-06-08T11:08:19.338Z,5272.00
2019-06-08T11:09:19.598Z,4000.00
2019-06-08T11:10:19.339Z,4184.00
2019-06-08T11:11:20.560Z,3980.00
2019-06-08T11:12:19.371Z,4548.00
2019-06-08T11:13:19.311Z,5308.00
2019-06-08T11:14:22.429Z,5176.00
2019-06-08T11:15:19.264Z,5736.00
2019-06-08T11:16:19.271Z,5108.00
2019-06-08T11:17:19.282Z,6080.00
2019-06-08T11:18:19.229Z,6112.00
2019-06-08T11:19:19.257Z,5772.00
2019-06-08T11:20:19.230Z,4416.00
2019-06-08T11:21:19.285Z,5392.00
2019-06-08T11:22:19.192Z,5448.00
2019-06-08T11:23:19.302Z,4268.00
2019-06-08T11:24:24.674Z,3860.00
2019-06-08T11:25:20.261Z,3316.00
2019-06-08T11:26:24.067Z,6112.00
2019-06-08T11:27:20.132Z,6652.00
2019-06-08T11:28:19.136Z,5128.00
2019-06-08T11:29:19.170Z,7424.00
2019-06-08T11:30:23.622Z,9328.00
2019-06-08T11:31:20.121Z,4748.00
2019-06-08T11:32:19.082Z,5192.00
2019-06-08T11:33:19.066Z,5036.00
2019-06-08T11:34:21.938Z,4620.00
2019-06-08T11:35:19.067Z,4072.00
2019-06-08T11:36:19.259Z,2896.00
2019-06-08T11:37:21.047Z,4176.00
2019-06-08T11:38:20.288Z,4620.00
2019-06-08T11:39:19.004Z,4492.00
2019-06-08T11:40:20.723Z,4312.00
2019-06-08T11:41:22.629Z,4296.00
2019-06-08T11:42:19.258Z,3552.00
2019-06-08T11:43:19.018Z,3524.00
2019-06-08T11:44:19.000Z,3212.00
2019-06-08T11:45:18.964Z,2960.00
2019-06-08T11:46:21.572Z,2712.00
2019-06-08T11:47:18.959Z,3708.00
2019-06-08T11:48:18.903Z,4088.00
2019-06-08T11:49:19.050Z,4224.00
2019-06-08T11:50:18.944Z,3964.00
2019-06-08T11:51:18.875Z,4252.00
2019-06-08T11:52:18.881Z,3236.00
2019-06-08T11:53:18.950Z,2828.00
2019-06-08T11:54:32.857Z,3436.00
2019-06-08T11:55:19.885Z,3228.00
2019-06-08T11:56:18.820Z,3064.00
2019-06-08T11:57:18.834Z,3884.00
2019-06-08T11:58:22.703Z,4596.00
2019-06-08T11:59:18.786Z,4472.00
2019-06-08T12:00:27.412Z,4568.00
2019-06-08T12:01:19.813Z,4536.00
2019-06-08T12:02:18.775Z,5400.00
2019-06-08T12:03:18.794Z,4856.00
2019-06-08T12:04:18.753Z,4000.00
2019-06-08T12:05:18.724Z,3900.00
2019-06-08T12:06:18.770Z,3668.00
2019-06-08T12:07:18.720Z,3408.00
2019-06-08T12:08:20.881Z,3204.00
2019-06-08T12:09:19.084Z,2484.00
2019-06-08T12:10:18.703Z,3228.00
2019-06-08T12:11:22.237Z,3172.00
2019-06-08T12:12:21.241Z,2948.00
2019-06-08T12:13:18.660Z,3812.00
2019-06-08T12:14:18.646Z,4508.00
2019-06-08T12:15:21.168Z,4660.00
2019-06-08T12:16:22.064Z,4256.00
2019-06-08T12:17:22.248Z,4012.00
2019-06-08T12:18:18.604Z,3616.00
2019-06-08T12:19:20.805Z,3108.00
2019-06-08T12:20:21.274Z,5572.00
2019-06-08T12:21:19.545Z,3080.00
2019-06-08T12:22:21.694Z,3464.00
2019-06-08T12:23:18.580Z,3488.00
2019-06-08T12:24:18.520Z,3860.00
2019-06-08T12:25:18.516Z,3912.00
2019-06-08T12:26:18.555Z,3880.00
2019-06-08T12:27:26.865Z,3284.00
2019-06-08T12:28:19.489Z,3428.00
2019-06-08T12:29:19.022Z,3004.00
2019-06-08T12:30:25.647Z,3628.00
2019-06-08T12:31:22.542Z,3900.00
2019-06-08T12:32:18.547Z,4908.00
2019-06-08T12:33:19.830Z,5272.00
2019-06-08T12:34:18.715Z,6344.00
2019-06-08T12:35:18.396Z,4984.00
2019-06-08T12:36:20.707Z,6268.00
2019-06-08T12:37:22.231Z,4956.00
2019-06-08T12:38:19.131Z,7360.00
2019-06-08T12:39:20.968Z,5212.00
2019-06-08T12:40:19.537Z,7052.00